Time;durP1;ratioP1;P1;durP2;ratioP2;P2;SDS_P1;SDS_P2;PMS_P1;PMS_P2;Temp;Humidity;BMP_temperature;BMP_pressure;BME280_temperature;BME280_humidity;BME280_pressure;Samples;Min_cycle;Max_cycle;Signal;HPM_P1;HPM_P2
2020/12/24 00:00:16;;;;;;;8.70;6.80;;;;;;;9.43;100.00;95993.84;4952895;28;20042;-48
2020/12/24 00:02:43;;;;;;;8.25;6.10;;;;;;;9.49;100.00;95993.22;4981949;28;20113;-48
2020/12/24 00:05:11;;;;;;;10.35;6.57;;;;;;;9.60;100.00;96006.19;4978464;28;20085;-49
2020/12/24 00:07:39;;;;;;;14.55;7.72;;;;;;;9.56;100.00;96009.25;4968992;28;20121;-49
2020/12/24 00:10:06;;;;;;;8.35;6.05;;;;;;;9.44;100.00;96022.63;4987102;28;20146;-51
2020/12/24 00:12:34;;;;;;;9.02;6.20;;;;;;;9.51;100.00;96023.69;4938334;28;20038;-49
2020/12/24 00:15:01;;;;;;;10.50;6.47;;;;;;;9.43;100.00;96023.63;4984799;28;20054;-48
2020/12/24 00:17:29;;;;;;;8.18;6.13;;;;;;;9.41;100.00;96012.41;4947437;28;20066;-52
2020/12/24 00:19:56;;;;;;;7.93;6.60;;;;;;;9.53;100.00;96007.72;4983930;28;20133;-50
2020/12/24 00:22:24;;;;;;;9.88;6.43;;;;;;;9.48;100.00;95991.56;4966920;28;20039;-47
2020/12/24 00:24:51;;;;;;;8.85;6.63;;;;;;;9.54;100.00;95964.66;4986090;28;20046;-49
2020/12/24 00:27:18;;;;;;;8.20;6.85;;;;;;;9.47;100.00;95974.97;4938380;28;20042;-59
2020/12/24 00:29:45;;;;;;;9.05;6.40;;;;;;;9.55;100.00;95968.94;4987287;28;20970;-48
2020/12/24 00:32:12;;;;;;;9.57;6.68;;;;;;;9.60;100.00;95964.06;4936581;28;20039;-50
2020/12/24 00:34:40;;;;;;;10.25;7.18;;;;;;;9.58;100.00;95958.13;4984787;28;20053;-47
2020/12/24 00:37:07;;;;;;;9.30;7.00;;;;;;;9.60;100.00;95964.06;4945611;28;20473;-47
2020/12/24 00:39:34;;;;;;;11.23;7.25;;;;;;;9.57;100.00;95961.72;4982577;28;20053;-50
2020/12/24 00:42:01;;;;;;;11.80;7.95;;;;;;;9.63;100.00;95963.75;4950080;28;20046;-48
2020/12/24 00:44:28;;;;;;;10.63;7.75;;;;;;;9.58;100.00;95973.91;4962531;28;20049;-55
2020/12/24 00:46:55;;;;;;;13.93;9.02;;;;;;;9.58;100.00;95984.44;4948392;28;20046;-51
2020/12/24 00:49:22;;;;;;;13.63;8.65;;;;;;;9.38;100.00;95999.53;4982215;28;20038;-48
2020/12/24 00:51:50;;;;;;;13.52;8.50;;;;;;;9.45;100.00;96007.66;4963225;28;20077;-48
2020/12/24 00:54:17;;;;;;;12.70;8.27;;;;;;;9.45;100.00;95991.88;4951366;28;20105;-48
2020/12/24 00:56:44;;;;;;;12.98;7.70;;;;;;;9.41;100.00;95993.97;4976609;28;20046;-52
2020/12/24 00:59:15;;;;;;;;;;;;;;;9.37;100.00;95990.00;4955649;28;20517;-49
2020/12/24 01:01:42;;;;;;;10.65;7.32;;;;;;;9.43;100.00;95984.13;4980910;28;20665;-50
2020/12/24 01:04:09;;;;;;;11.23;7.75;;;;;;;9.45;100.00;95987.44;4938552;28;20057;-53
2020/12/24 01:06:36;;;;;;;13.73;8.57;;;;;;;9.49;100.00;95985.31;4986372;28;20086;-54
2020/12/24 01:09:05;;;;;;;11.98;8.30;;;;;;;9.53;100.00;96002.47;4944223;28;20109;-52
2020/12/24 01:11:34;;;;;;;11.97;8.50;;;;;;;9.45;100.00;96010.28;4979138;28;20042;-50
2020/12/24 01:14:01;;;;;;;12.98;9.05;;;;;;;9.49;100.00;96004.56;4953510;28;20042;-49
2020/12/24 01:16:28;;;;;;;11.57;8.27;;;;;;;9.41;100.00;96008.94;4980967;28;20034;-51
2020/12/24 01:18:59;;;;;;;13.25;7.93;;;;;;;9.39;100.00;96008.25;4949196;28;20093;-52
2020/12/24 01:21:25;;;;;;;14.68;8.60;;;;;;;9.43;100.00;96005.19;4983366;28;20043;-49
2020/12/24 01:23:53;;;;;;;14.13;8.60;;;;;;;9.50;100.00;95994.91;4939476;28;20046;-53
2020/12/24 01:26:21;;;;;;;12.38;8.13;;;;;;;9.49;100.00;96003.75;4981427;28;20417;-51
2020/12/24 01:28:48;;;;;;;12.38;8.43;;;;;;;9.57;100.00;95995.94;4951225;28;22463;-48
2020/12/24 01:31:15;;;;;;;10.68;7.93;;;;;;;9.59;100.00;95999.25;4982260;28;20054;-56
2020/12/24 01:33:42;;;;;;;12.18;8.05;;;;;;;9.60;100.00;96003.56;4957497;28;20069;-52
2020/12/24 01:36:09;;;;;;;13.48;8.02;;;;;;;9.56;100.00;95999.53;4976136;28;20039;-53
2020/12/24 01:38:39;;;;;;;12.77;7.97;;;;;;;9.50;100.00;96002.78;4978764;28;20509;-53
2020/12/24 01:41:07;;;;;;;12.13;7.75;;;;;;;9.51;100.00;96004.44;4942887;28;20106;-51
2020/12/24 01:43:35;;;;;;;12.32;8.30;;;;;;;9.46;100.00;96004.03;4985672;28;20134;-51
2020/12/24 01:46:02;;;;;;;12.65;8.02;;;;;;;9.50;100.00;96003.63;4948764;28;20047;-52
2020/12/24 01:48:29;;;;;;;10.75;8.00;;;;;;;9.50;100.00;95997.53;4982929;28;20042;-55
2020/12/24 01:50:56;;;;;;;11.55;7.70;;;;;;;9.48;100.00;96002.09;4949518;28;20046;-53
2020/12/24 01:53:24;;;;;;;9.85;6.97;;;;;;;9.41;100.00;95999.22;4980770;28;20046;-49
2020/12/24 01:55:52;;;;;;;9.95;6.70;;;;;;;9.43;100.00;95992.03;4940177;28;20118;-60
2020/12/24 01:58:19;;;;;;;9.68;6.32;;;;;;;9.44;100.00;95982.34;4980576;28;20046;-49
2020/12/24 02:00:47;;;;;;;11.98;6.35;;;;;;;9.41;100.00;95978.19;4942587;28;20077;-47
2020/12/24 02:03:14;;;;;;;9.95;5.82;;;;;;;9.40;100.00;95975.72;4979300;28;20030;-47
2020/12/24 02:05:41;;;;;;;7.57;4.78;;;;;;;9.52;100.00;95975.31;4951073;28;20061;-51
2020/12/24 02:08:09;;;;;;;7.15;4.03;;;;;;;9.42;100.00;95971.94;4985053;28;20409;-47
2020/12/24 02:10:36;;;;;;;6.32;4.13;;;;;;;9.37;100.00;95976.00;4954754;28;20038;-47
2020/12/24 02:13:03;;;;;;;6.22;2.80;;;;;;;9.31;100.00;95976.59;4979355;28;20583;-47
2020/12/24 02:15:30;;;;;;;3.55;2.08;;;;;;;9.33;100.00;95982.56;4945015;28;20396;-47
2020/12/24 02:17:58;;;;;;;4.60;2.00;;;;;;;9.25;100.00;95983.28;4982499;28;20073;-53
2020/12/24 02:20:25;;;;;;;5.00;1.92;;;;;;;9.22;100.00;95970.41;4981663;28;20034;-50
2020/12/24 02:22:53;;;;;;;2.90;1.60;;;;;;;9.24;100.00;95971.09;4966646;28;20085;-48
2020/12/24 02:25:21;;;;;;;2.97;1.80;;;;;;;9.21;100.00;95972.22;4983928;28;20042;-48
2020/12/24 02:27:48;;;;;;;3.83;1.40;;;;;;;9.22;100.00;95973.03;4954204;28;20464;-52
2020/12/24 02:30:15;;;;;;;2.17;1.10;;;;;;;9.11;100.00;95971.44;4978807;28;20496;-48
2020/12/24 02:32:42;;;;;;;1.15;1.00;;;;;;;9.13;100.00;95956.34;4944614;28;20035;-52
2020/12/24 02:35:09;;;;;;;1.92;1.17;;;;;;;9.11;100.00;95970.63;4982207;28;20105;-52
2020/12/24 02:37:36;;;;;;;1.90;1.30;;;;;;;9.11;100.00;95970.63;4937685;28;20056;-52
2020/12/24 02:40:04;;;;;;;1.35;1.00;;;;;;;9.05;100.00;95953.66;4987168;28;20046;-48
2020/12/24 02:42:33;;;;;;;1.98;1.27;;;;;;;9.07;100.00;95953.50;4948004;28;20054;-48
2020/12/24 02:45:00;;;;;;;2.22;1.20;;;;;;;9.05;100.00;95958.91;4985683;28;20047;-48
2020/12/24 02:47:28;;;;;;;2.40;1.30;;;;;;;8.93;100.00;95957.44;4949928;28;20545;-50
2020/12/24 02:49:57;;;;;;;2.63;1.10;;;;;;;8.93;100.00;95960.91;4985168;28;20478;-49
2020/12/24 02:52:24;;;;;;;3.88;1.40;;;;;;;8.92;100.00;95954.00;4948407;28;20126;-49
2020/12/24 02:54:51;;;;;;;2.67;1.20;;;;;;;8.93;100.00;95953.00;4984928;28;20227;-48
2020/12/24 02:57:19;;;;;;;3.83;1.42;;;;;;;8.86;100.00;95954.56;4951193;28;20125;-51
2020/12/24 03:00:07;;;;;;;4.45;1.25;;;;;;;8.86;100.00;95954.56;4988004;28;20104;-49
2020/12/24 03:02:36;;;;;;;2.38;1.40;;;;;;;8.91;100.00;95947.09;4954460;28;20049;-47
2020/12/24 03:05:03;;;;;;;2.92;1.20;;;;;;;8.90;100.00;95944.59;4988791;28;20039;-48
2020/12/24 03:07:30;;;;;;;2.55;1.17;;;;;;;8.84;100.00;95938.09;4945015;28;20113;-52
2020/12/24 03:09:57;;;;;;;2.20;1.20;;;;;;;8.81;100.00;95935.78;4980458;28;20092;-50
2020/12/24 03:12:25;;;;;;;1.27;0.75;;;;;;;8.85;100.00;95929.25;4988854;28;20082;-47
2020/12/24 03:14:53;;;;;;;3.90;0.88;;;;;;;8.77;100.00;95924.75;4959742;28;20502;-49
2020/12/24 03:17:21;;;;;;;1.77;1.05;;;;;;;8.76;100.00;95925.69;4979049;28;20493;-47
2020/12/24 03:19:48;;;;;;;2.38;0.93;;;;;;;8.79;100.00;95928.03;4955906;28;20493;-47
2020/12/24 03:22:15;;;;;;;2.92;0.95;;;;;;;8.78;100.00;95917.69;4983163;28;20517;-48
2020/12/24 03:24:42;;;;;;;2.22;0.90;;;;;;;8.77;100.00;95927.38;4961710;28;20117;-48
2020/12/24 03:27:09;;;;;;;2.58;0.90;;;;;;;8.76;100.00;95932.75;4986277;28;20035;-49
2020/12/24 03:29:37;;;;;;;2.40;1.08;;;;;;;8.74;100.00;95925.03;4943494;28;20497;-48
2020/12/24 03:32:04;;;;;;;1.85;0.90;;;;;;;8.74;100.00;95919.78;4980360;28;20053;-51
2020/12/24 03:34:31;;;;;;;3.20;1.35;;;;;;;8.72;100.00;95926.16;4947025;28;20043;-48
2020/12/24 03:36:58;;;;;;;1.48;1.13;;;;;;;8.73;100.00;95915.47;4980857;28;20505;-47
2020/12/24 03:39:25;;;;;;;1.25;0.80;;;;;;;8.71;100.00;95916.63;4949531;28;20083;-50
2020/12/24 03:41:53;;;;;;;3.20;0.82;;;;;;;8.67;100.00;95915.22;4990572;28;20045;-47
2020/12/24 03:44:20;;;;;;;3.67;1.23;;;;;;;8.68;100.00;95915.09;4947565;28;20570;-48
2020/12/24 03:46:48;;;;;;;2.90;1.13;;;;;;;8.66;100.00;95913.56;4966401;28;20043;-48
2020/12/24 03:49:15;;;;;;;1.85;1.00;;;;;;;8.61;100.00;95906.13;4943967;28;20058;-52
2020/12/24 03:51:42;;;;;;;4.10;1.00;;;;;;;8.56;100.00;95914.44;4986651;28;20113;-48
2020/12/24 03:54:09;;;;;;;1.75;1.20;;;;;;;8.65;100.00;95914.56;4963637;28;20041;-52
2020/12/24 03:56:36;;;;;;;1.92;1.00;;;;;;;8.60;100.00;95906.28;4982173;28;20042;-50
2020/12/24 03:59:03;;;;;;;1.75;1.27;;;;;;;8.62;100.00;95910.41;4985409;28;20069;-50
2020/12/24 04:01:31;;;;;;;3.28;1.23;;;;;;;8.62;100.00;95904.34;4943360;28;20038;-47
2020/12/24 04:03:59;;;;;;;5.00;1.33;;;;;;;8.63;100.00;95905.97;4984246;28;20505;-48
2020/12/24 04:06:26;;;;;;;2.03;1.23;;;;;;;8.64;100.00;95911.09;4948396;28;20042;-48
2020/12/24 04:08:53;;;;;;;2.22;1.60;;;;;;;8.64;100.00;95912.91;4986852;28;20046;-53
2020/12/24 04:11:20;;;;;;;4.00;1.60;;;;;;;8.63;100.00;95914.69;4948929;28;20507;-55
2020/12/24 04:13:47;;;;;;;2.97;1.50;;;;;;;8.68;100.00;95911.66;4966594;28;20053;-53
2020/12/24 04:16:17;;;;;;;3.13;1.40;;;;;;;8.62;100.00;95918.31;4950407;28;20042;-50
2020/12/24 04:18:45;;;;;;;2.53;1.70;;;;;;;8.62;100.00;95913.03;4977505;28;20054;-49
2020/12/24 04:21:14;;;;;;;3.05;1.95;;;;;;;8.67;100.00;95917.84;4943802;28;20052;-50
2020/12/24 04:23:41;;;;;;;3.70;1.90;;;;;;;8.64;100.00;95923.44;4986058;28;20038;-49
2020/12/24 04:26:08;;;;;;;2.47;1.50;;;;;;;8.70;100.00;95917.56;4950667;28;20046;-47
2020/12/24 04:28:36;;;;;;;1.70;1.00;;;;;;;8.71;100.00;95930.56;4983681;28;20039;-49
2020/12/24 04:31:03;;;;;;;1.73;0.82;;;;;;;8.79;100.00;95935.09;4947089;28;20567;-48
2020/12/24 04:33:32;;;;;;;1.83;0.52;;;;;;;8.77;100.00;95932.63;4982056;28;20135;-49
2020/12/24 04:35:59;;;;;;;2.33;0.70;;;;;;;8.76;100.00;95940.66;4943025;28;20674;-49
2020/12/24 04:38:27;;;;;;;2.83;0.60;;;;;;;8.78;100.00;95946.59;4984425;28;20104;-54
2020/12/24 04:40:57;;;;;;;0.20;0.20;;;;;;;8.76;100.00;95951.97;4966651;28;20049;-59
2020/12/24 04:43:26;;;;;;;0.82;0.32;;;;;;;8.77;100.00;95950.19;4975973;28;20042;-49
2020/12/24 04:45:53;;;;;;;0.50;0.20;;;;;;;8.75;100.00;95947.72;4977288;28;20031;-50
2020/12/24 04:48:20;;;;;;;0.20;0.20;;;;;;;8.79;100.00;95945.59;4954453;28;20039;-47
2020/12/24 04:50:49;;;;;;;0.10;0.10;;;;;;;8.73;100.00;95943.56;4980953;28;20177;-48
2020/12/24 04:53:16;;;;;;;0.30;0.10;;;;;;;8.64;100.00;95947.09;4956056;28;20244;-48
2020/12/24 04:55:44;;;;;;;0.20;0.10;;;;;;;8.58;100.00;95943.22;4984590;28;20100;-49
2020/12/24 04:58:11;;;;;;;0.20;0.13;;;;;;;8.52;100.00;95944.63;4942661;28;20043;-50
2020/12/24 05:00:39;;;;;;;0.20;0.10;;;;;;;8.44;100.00;95954.22;4977505;28;20059;-50
2020/12/24 05:03:08;;;;;;;2.65;0.25;;;;;;;8.44;100.00;95941.91;4947817;28;20109;-48
2020/12/24 05:05:36;;;;;;;0.10;0.10;;;;;;;8.11;100.00;95951.06;4980832;28;20062;-50
2020/12/24 05:08:04;;;;;;;0.20;0.10;;;;;;;7.79;100.00;95962.75;4950027;28;20042;-47
2020/12/24 05:10:32;;;;;;;0.38;0.10;;;;;;;7.73;100.00;95972.97;4982797;28;20053;-48
2020/12/24 05:13:13;;;;;;;0.10;0.10;;;;;;;7.57;100.00;95966.50;4943399;28;20574;-51
2020/12/24 05:15:40;;;;;;;0.25;0.10;;;;;;;7.47;100.00;95978.78;4983538;28;20089;-48
2020/12/24 05:18:14;;;;;;;3.42;0.30;;;;;;;7.38;100.00;95972.53;4944441;28;20125;-50
2020/12/24 05:20:42;;;;;;;0.17;0.13;;;;;;;7.35;100.00;95979.84;4982898;28;20042;-46
2020/12/24 05:23:13;;;;;;;0.88;0.30;;;;;;;7.32;100.00;95978.31;4953620;28;20448;-47
2020/12/24 05:25:41;;;;;;;1.58;0.43;;;;;;;7.35;100.00;95974.63;4999621;28;20096;-50
2020/12/24 05:28:09;;;;;;;0.52;0.30;;;;;;;7.27;100.00;95977.94;4954174;28;24103;-47
2020/12/24 05:30:36;;;;;;;3.65;0.40;;;;;;;7.21;100.00;95985.50;4979171;28;20109;-53
2020/12/24 05:33:03;;;;;;;3.53;0.28;;;;;;;7.16;100.00;95985.06;4946466;28;20050;-48
2020/12/24 05:35:30;;;;;;;1.13;0.30;;;;;;;7.11;100.00;95983.69;4974475;28;20058;-48
2020/12/24 05:37:57;;;;;;;0.20;0.20;;;;;;;7.10;100.00;95987.28;4982902;28;20093;-50
2020/12/24 05:40:25;;;;;;;0.35;0.20;;;;;;;7.06;100.00;95993.75;4945102;28;20477;-47
2020/12/24 05:42:55;;;;;;;0.80;0.28;;;;;;;7.05;100.00;95983.38;4980993;28;20042;-48
2020/12/24 05:45:23;;;;;;;0.65;0.20;;;;;;;7.10;100.00;95982.03;4951593;28;20042;-53
2020/12/24 05:48:07;;;;;;;2.90;0.25;;;;;;;7.12;100.00;95981.88;4982132;28;20117;-47
2020/12/24 05:50:34;;;;;;;0.10;0.10;;;;;;;7.09;100.00;95972.53;4938803;28;20705;-49
2020/12/24 05:53:09;;;;;;;0.85;0.20;;;;;;;7.04;100.00;95974.69;4985527;28;20535;-53
2020/12/24 05:55:37;;;;;;;0.20;0.20;;;;;;;7.05;100.00;95989.44;4942762;28;20050;-54
2020/12/24 05:58:04;;;;;;;0.40;0.20;;;;;;;7.11;100.00;95982.84;4975834;28;20050;-49
2020/12/24 06:00:34;;;;;;;0.98;0.20;;;;;;;7.11;100.00;95972.38;4951755;28;20058;-52
2020/12/24 06:03:13;;;;;;;0.63;0.20;;;;;;;7.13;100.00;95970.44;4984910;28;20584;-49
2020/12/24 06:06:01;;;;;;;0.85;0.20;;;;;;;7.05;100.00;95978.16;4948937;28;20580;-49
2020/12/24 06:08:30;;;;;;;0.75;0.30;;;;;;;7.03;100.00;95986.16;4980041;28;20493;-50
2020/12/24 06:11:02;;;;;;;0.65;0.20;;;;;;;7.14;100.00;95985.22;4944407;28;20038;-48
2020/12/24 06:13:38;;;;;;;0.40;0.17;;;;;;;7.06;100.00;95988.50;4984214;28;20042;-49
2020/12/24 06:16:07;;;;;;;0.45;0.20;;;;;;;7.03;100.00;95983.53;4954759;28;20034;-48
2020/12/24 06:18:36;;;;;;;1.55;0.25;;;;;;;7.02;100.00;95992.38;4987606;28;20474;-48
2020/12/24 06:21:13;;;;;;;1.52;0.40;;;;;;;7.07;100.00;95982.28;4952037;28;20058;-52
2020/12/24 06:23:45;;;;;;;1.00;0.35;;;;;;;7.05;100.00;95971.09;4983621;28;20034;-49
2020/12/24 06:26:15;;;;;;;2.20;0.35;;;;;;;7.01;100.00;95971.53;4951018;28;20050;-47
2020/12/24 06:28:42;;;;;;;2.85;0.40;;;;;;;7.04;100.00;95952.91;4968659;28;20056;-53
2020/12/24 06:31:11;;;;;;;2.63;0.50;;;;;;;6.94;100.00;95938.94;4945636;28;20069;-52
2020/12/24 06:33:38;;;;;;;0.65;0.30;;;;;;;6.92;100.00;95936.47;4985175;28;20054;-49
2020/12/24 06:36:06;;;;;;;0.25;0.20;;;;;;;6.89;100.00;95948.06;4948480;28;20062;-52
2020/12/24 06:38:45;;;;;;;0.55;0.20;;;;;;;6.87;100.00;95949.97;4984919;28;20047;-48
2020/12/24 06:41:22;;;;;;;0.85;0.20;;;;;;;6.86;100.00;95950.94;4950678;28;20297;-47
2020/12/24 06:43:50;;;;;;;3.08;0.30;;;;;;;6.81;100.00;95947.91;4985828;28;20132;-50
2020/12/24 06:46:18;;;;;;;0.22;0.20;;;;;;;6.87;100.00;95949.97;4947144;28;20041;-52
2020/12/24 06:49:01;;;;;;;0.63;0.20;;;;;;;6.81;100.00;95958.38;4986468;28;20039;-48
2020/12/24 06:51:48;;;;;;;0.55;0.30;;;;;;;6.82;100.00;95957.41;4953431;28;20408;-50
2020/12/24 06:54:25;;;;;;;0.90;0.30;;;;;;;6.75;100.00;95961.53;4981686;28;20046;-48
2020/12/24 06:57:20;;;;;;;1.05;0.20;;;;;;;6.67;100.00;95950.88;4956440;28;20065;-50
2020/12/24 06:59:47;;;;;;;0.52;0.20;;;;;;;6.76;100.00;95950.09;4981817;28;20058;-50
2020/12/24 07:02:24;;;;;;;3.05;0.30;;;;;;;6.71;100.00;95940.94;4947423;28;20042;-48
2020/12/24 07:04:51;;;;;;;0.93;0.28;;;;;;;6.66;100.00;95941.38;4982975;28;20440;-54
2020/12/24 07:07:43;;;;;;;1.48;0.30;;;;;;;6.58;100.00;95949.91;4938582;28;20042;-49
2020/12/24 07:10:41;;;;;;;1.40;0.40;;;;;;;6.63;100.00;95941.63;4980268;28;20047;-51
2020/12/24 07:13:08;;;;;;;1.38;0.30;;;;;;;6.60;100.00;95940.09;4965458;28;20031;-48
2020/12/24 07:15:42;;;;;;;0.70;0.30;;;;;;;6.63;100.00;95929.34;4985591;28;20512;-50
2020/12/24 07:18:12;;;;;;;3.10;0.68;;;;;;;6.62;100.00;95934.72;4956742;28;20046;-49
2020/12/24 07:20:41;;;;;;;1.52;0.30;;;;;;;6.56;100.00;95941.31;4964701;28;20077;-52
2020/12/24 07:23:09;;;;;;;1.15;0.20;;;;;;;6.61;100.00;95947.00;4941367;28;20038;-49
2020/12/24 07:25:36;;;;;;;1.45;0.30;;;;;;;6.66;100.00;95954.47;4981980;28;20039;-48
2020/12/24 07:28:04;;;;;;;2.05;0.30;;;;;;;6.53;100.00;95938.97;4947018;28;20054;-49
2020/12/24 07:30:31;;;;;;;1.15;0.32;;;;;;;6.55;100.00;95942.28;4985928;28;20121;-49
2020/12/24 07:32:58;;;;;;;1.10;0.30;;;;;;;6.54;100.00;95927.56;4950556;28;22704;-52
2020/12/24 07:35:26;;;;;;;0.35;0.20;;;;;;;6.50;100.00;95928.75;4979605;28;20054;-55
2020/12/24 07:37:54;;;;;;;2.17;0.40;;;;;;;6.49;100.00;95919.25;4954622;28;20043;-47
2020/12/24 07:40:30;;;;;;;1.42;0.35;;;;;;;6.48;100.00;95930.69;4980684;28;20047;-47
2020/12/24 07:43:06;;;;;;;0.85;0.30;;;;;;;6.56;100.00;95922.16;4962307;28;20054;-50
2020/12/24 07:45:34;;;;;;;1.48;0.30;;;;;;;6.60;99.83;95910.44;4982192;28;20133;-47
2020/12/24 07:48:00;;;;;;;2.40;0.50;;;;;;;6.59;100.00;95907.00;4999273;28;20493;-47
2020/12/24 07:50:32;;;;;;;3.63;0.40;;;;;;;6.54;100.00;95906.59;4938530;28;20504;-51
2020/12/24 07:53:11;;;;;;;1.05;0.30;;;;;;;6.56;100.00;95907.28;4981320;28;20053;-49
2020/12/24 07:55:38;;;;;;;1.50;0.20;;;;;;;6.61;100.00;95922.59;4953081;28;20141;-49
2020/12/24 07:58:07;;;;;;;3.00;0.45;;;;;;;6.61;100.00;95912.97;4980681;28;20047;-47
2020/12/24 08:00:44;;;;;;;2.20;0.38;;;;;;;6.70;96.91;95895.59;4957376;28;20042;-46
2020/12/24 08:03:14;;;;;;;2.47;0.68;;;;;;;6.69;96.73;95896.56;4985445;28;20045;-48
2020/12/24 08:05:42;;;;;;;0.95;0.40;;;;;;;6.70;95.44;95897.38;4946727;28;20054;-48
2020/12/24 08:08:09;;;;;;;0.50;0.40;;;;;;;6.68;96.51;95883.59;4978538;28;20043;-48
2020/12/24 08:10:38;;;;;;;0.88;0.32;;;;;;;6.64;97.02;95877.78;4925662;28;20049;-49
2020/12/24 08:13:06;;;;;;;1.05;0.20;;;;;;;6.74;95.34;95883.03;4984500;28;20064;-48
2020/12/24 08:15:34;;;;;;;0.50;0.22;;;;;;;6.71;95.50;95881.53;4950842;28;20078;-48
2020/12/24 08:18:02;;;;;;;1.98;0.40;;;;;;;6.73;95.82;95881.41;4984625;28;20066;-47
2020/12/24 08:20:35;;;;;;;1.10;0.40;;;;;;;6.73;96.07;95882.22;4958117;28;20035;-47
2020/12/24 08:23:12;;;;;;;1.92;0.40;;;;;;;6.81;94.33;95879.78;4999474;28;20034;-52
2020/12/24 08:25:39;;;;;;;3.17;0.40;;;;;;;6.79;94.17;95886.94;4939168;28;20042;-48
2020/12/24 08:28:07;;;;;;;1.42;0.50;;;;;;;6.79;93.70;95886.09;4980903;28;20077;-47
2020/12/24 08:30:52;;;;;;;0.82;0.40;;;;;;;6.68;94.62;95865.28;4944979;28;20046;-49
2020/12/24 08:33:19;;;;;;;2.08;0.50;;;;;;;6.71;95.05;95873.69;4985282;28;20078;-49
2020/12/24 08:35:46;;;;;;;1.67;0.40;;;;;;;6.74;94.91;95867.31;4941781;28;20121;-48
2020/12/24 08:38:17;;;;;;;3.17;0.68;;;;;;;6.79;93.33;95867.75;4977871;28;20460;-56
2020/12/24 08:40:45;;;;;;;3.35;0.55;;;;;;;6.74;93.82;95869.94;4936628;28;20101;-55
2020/12/24 08:43:13;;;;;;;0.70;0.30;;;;;;;6.80;92.69;95867.59;4983468;28;20378;-57
2020/12/24 08:45:44;;;;;;;2.03;0.30;;;;;;;6.75;92.78;95859.34;4937473;28;20928;-55
2020/12/24 08:48:27;;;;;;;1.90;0.47;;;;;;;6.82;92.54;95864.88;4971536;28;20046;-55
2020/12/24 08:50:54;;;;;;;1.13;0.30;;;;;;;6.83;91.70;95856.84;4949381;28;22457;-56
2020/12/24 08:53:23;;;;;;;4.38;0.40;;;;;;;6.85;92.33;95847.09;4980833;28;20038;-52
2020/12/24 08:55:50;;;;;;;1.42;0.40;;;;;;;6.82;91.88;95834.25;4957123;28;20058;-53
2020/12/24 08:58:17;;;;;;;1.30;0.38;;;;;;;6.86;91.69;95840.88;4983519;28;20038;-55
2020/12/24 09:00:44;;;;;;;4.00;0.40;;;;;;;7.17;89.57;95834.66;4982651;28;20054;-55
2020/12/24 09:03:22;;;;;;;1.05;0.30;;;;;;;7.17;88.81;95843.34;4943627;28;20080;-55
2020/12/24 09:05:49;;;;;;;0.90;0.30;;;;;;;7.11;90.59;95842.09;4979804;28;20132;-54
2020/12/24 09:08:26;;;;;;;1.95;0.30;;;;;;;7.01;90.16;95848.31;4949209;28;20098;-53
2020/12/24 09:10:53;;;;;;;0.85;0.30;;;;;;;6.98;88.91;95849.41;4983587;28;20054;-56
2020/12/24 09:13:20;;;;;;;0.98;0.30;;;;;;;7.07;87.77;95856.47;4955422;28;20501;-54
2020/12/24 09:15:48;;;;;;;0.77;0.30;;;;;;;6.99;87.47;95850.28;4981668;28;20062;-58
2020/12/24 09:18:17;;;;;;;5.68;0.57;;;;;;;7.06;87.00;95846.13;4942356;28;20055;-57
2020/12/24 09:20:44;;;;;;;0.40;0.35;;;;;;;7.06;87.88;95846.13;4985906;28;20572;-57
2020/12/24 09:23:12;;;;;;;2.42;0.40;;;;;;;7.20;87.04;95837.84;4941634;28;20031;-55
2020/12/24 09:25:41;;;;;;;1.80;0.35;;;;;;;7.21;86.24;95830.78;4967120;28;20050;-55
2020/12/24 09:28:18;;;;;;;1.98;0.38;;;;;;;7.23;86.65;95826.25;4944806;28;20050;-55
2020/12/24 09:30:45;;;;;;;2.13;0.40;;;;;;;7.34;86.24;95821.66;4980421;28;20050;-55
2020/12/24 09:33:13;;;;;;;1.55;0.40;;;;;;;7.27;86.23;95822.38;4938974;28;20149;-57
2020/12/24 09:35:40;;;;;;;1.70;0.40;;;;;;;6.94;87.20;95821.00;4979007;28;20121;-56
2020/12/24 09:38:08;;;;;;;2.00;0.40;;;;;;;7.03;86.08;95822.81;4938335;28;20042;-59
2020/12/24 09:40:35;;;;;;;1.95;0.43;;;;;;;6.87;88.92;95818.94;4981915;28;20121;-55
2020/12/24 09:43:05;;;;;;;0.50;0.30;;;;;;;6.63;90.41;95818.50;4948071;28;20583;-56
2020/12/24 09:45:32;;;;;;;0.98;0.32;;;;;;;6.65;91.50;95821.81;4985552;28;20504;-53
2020/12/24 09:47:59;;;;;;;2.58;0.50;;;;;;;6.76;91.18;95823.47;4954133;28;20057;-55
2020/12/24 09:50:26;;;;;;;1.80;0.40;;;;;;;6.67;91.99;95796.28;4981634;28;20034;-52
2020/12/24 09:52:53;;;;;;;1.48;0.32;;;;;;;6.76;92.09;95799.91;4984651;28;20461;-55
2020/12/24 09:55:20;;;;;;;1.10;0.30;;;;;;;6.76;92.38;95792.88;4951697;28;20129;-54
2020/12/24 09:57:47;;;;;;;2.58;0.70;;;;;;;6.85;91.33;95799.09;4983204;28;20081;-56
2020/12/24 10:00:15;;;;;;;1.95;0.47;;;;;;;6.95;90.36;95772.84;4950164;28;20089;-53
2020/12/24 10:02:42;;;;;;;0.88;0.28;;;;;;;6.95;90.53;95773.69;4985947;28;20050;-50
2020/12/24 10:05:09;;;;;;;1.20;0.30;;;;;;;7.01;90.50;95777.53;4947500;28;20096;-57
2020/12/24 10:07:36;;;;;;;0.35;0.20;;;;;;;7.05;90.26;95778.91;4986250;28;20042;-56
2020/12/24 10:10:03;;;;;;;1.85;0.40;;;;;;;7.16;88.85;95765.66;4948508;28;20042;-56
2020/12/24 10:12:30;;;;;;;0.17;0.17;;;;;;;7.31;87.53;95787.03;4976058;28;20053;-54
2020/12/24 10:14:57;;;;;;;0.93;0.30;;;;;;;7.28;88.11;95771.56;4952451;28;20046;-56
2020/12/24 10:17:25;;;;;;;0.63;0.22;;;;;;;7.48;85.89;95770.56;4985538;28;20497;-51
2020/12/24 10:19:53;;;;;;;0.25;0.20;;;;;;;7.83;87.73;95769.88;4939672;28;20042;-58
2020/12/24 10:22:22;;;;;;;2.83;0.52;;;;;;;7.94;86.34;95768.03;4975811;28;20046;-56
2020/12/24 10:24:52;;;;;;;0.93;0.17;;;;;;;7.94;85.07;95760.97;4942210;28;20125;-57
2020/12/24 10:27:19;;;;;;;0.43;0.30;;;;;;;8.27;84.17;95766.63;4979804;28;20066;-55
2020/12/24 10:29:46;;;;;;;2.47;0.30;;;;;;;8.50;84.26;95753.94;4948854;28;20082;-58
2020/12/24 10:32:14;;;;;;;0.98;0.30;;;;;;;8.58;81.99;95746.13;4987083;28;20066;-52
2020/12/24 10:34:42;;;;;;;2.15;0.30;;;;;;;8.56;83.46;95748.88;4950568;28;20046;-53
2020/12/24 10:37:10;;;;;;;1.75;0.50;;;;;;;8.62;85.32;95741.41;4974807;28;20565;-54
2020/12/24 10:39:37;;;;;;;1.50;0.30;;;;;;;8.39;84.20;95725.22;4985486;28;20042;-57
2020/12/24 10:42:04;;;;;;;0.82;0.40;;;;;;;8.27;84.10;95728.06;4947732;28;20035;-51
2020/12/24 10:44:34;;;;;;;0.20;0.20;;;;;;;8.21;84.06;95726.00;4981734;28;20046;-56
2020/12/24 10:47:01;;;;;;;1.27;0.30;;;;;;;8.18;85.75;95726.31;4949263;28;20076;-57
2020/12/24 10:49:29;;;;;;;0.40;0.20;;;;;;;8.06;84.35;95724.88;4983970;28;20501;-56
2020/12/24 10:51:57;;;;;;;0.30;0.22;;;;;;;8.26;83.88;95708.03;4954517;28;20501;-53
2020/12/24 10:54:25;;;;;;;0.50;0.28;;;;;;;8.13;86.53;95718.06;4977477;28;20114;-52
2020/12/24 10:56:52;;;;;;;0.52;0.20;;;;;;;8.06;84.91;95724.88;4952977;28;20053;-51
2020/12/24 10:59:20;;;;;;;0.55;0.45;;;;;;;8.15;84.68;95720.53;4986615;28;20050;-56
2020/12/24 11:01:47;;;;;;;4.45;0.30;;;;;;;8.23;82.84;95713.56;4944791;28;20157;-52
2020/12/24 11:04:15;;;;;;;0.20;0.20;;;;;;;8.47;82.83;95709.56;4988441;28;20138;-53
2020/12/24 11:06:43;;;;;;;1.38;0.40;;;;;;;8.70;81.75;95707.28;4951170;28;20039;-55
2020/12/24 11:09:12;;;;;;;0.20;0.20;;;;;;;8.85;81.69;95704.97;4989785;28;20101;-55
2020/12/24 11:11:40;;;;;;;0.55;0.20;;;;;;;8.80;80.73;95706.22;4955458;28;20052;-56
2020/12/24 11:14:07;;;;;;;0.80;0.20;;;;;;;9.00;80.29;95687.66;4990274;28;20060;-58
2020/12/24 11:16:34;;;;;;;4.25;0.50;;;;;;;9.39;79.94;95690.66;4948792;28;20046;-54
2020/12/24 11:19:02;;;;;;;1.63;0.32;;;;;;;9.64;77.02;95691.66;4982340;28;20037;-56
2020/12/24 11:21:30;;;;;;;0.68;0.35;;;;;;;9.74;79.24;95700.25;4960400;28;20097;-52
2020/12/24 11:24:04;;;;;;;0.75;0.38;;;;;;;9.75;76.31;95695.81;4988532;28;20386;-56
2020/12/24 11:26:32;;;;;;;0.13;0.13;;;;;;;10.03;76.63;95695.56;4965591;28;20058;-56
2020/12/24 11:29:00;;;;;;;0.30;0.22;;;;;;;10.07;77.08;95681.91;4967436;28;20047;-57
2020/12/24 11:31:28;;;;;;;0.90;0.30;;;;;;;9.85;75.11;95682.50;4985206;28;20101;-56
2020/12/24 11:33:56;;;;;;;1.00;0.28;;;;;;;9.94;75.13;95676.28;4945052;28;20502;-55
2020/12/24 11:36:23;;;;;;;3.50;0.47;;;;;;;9.96;74.24;95675.13;4966916;28;20050;-56
2020/12/24 11:38:51;;;;;;;0.95;0.40;;;;;;;10.01;74.88;95679.09;4932753;28;20046;-58
2020/12/24 11:41:19;;;;;;;2.25;0.47;;;;;;;9.96;74.55;95671.69;4969760;28;20052;-57